createdAt,value
2017-10-08T00:00:47.380Z,1.73
2017-10-08T00:03:17.623Z,3.08
2017-10-08T00:05:45.500Z,1.35
2017-10-08T00:08:13.407Z,2.10
2017-10-08T00:10:41.303Z,1.65
2017-10-08T00:13:09.252Z,1.65
2017-10-08T00:15:37.135Z,2.05
2017-10-08T00:18:05.083Z,2.75
2017-10-08T00:20:33.020Z,1.23
2017-10-08T00:23:00.977Z,1.37
2017-10-08T00:25:28.858Z,3.00
2017-10-08T00:27:57.516Z,1.30
2017-10-08T00:30:25.500Z,1.60
2017-10-08T00:32:53.394Z,1.52
2017-10-08T00:35:22.240Z,1.10
2017-10-08T00:37:50.888Z,2.40
2017-10-08T00:40:18.836Z,1.40
2017-10-08T00:42:46.732Z,1.50
2017-10-08T00:45:14.718Z,1.40
2017-10-08T00:47:42.629Z,0.90
2017-10-08T00:50:10.577Z,1.20
2017-10-08T00:52:38.512Z,1.30
2017-10-08T00:55:09.169Z,3.92
2017-10-08T00:57:39.673Z,1.10
2017-10-08T01:00:07.687Z,0.80
2017-10-08T01:02:35.625Z,1.08
2017-10-08T01:05:06.501Z,2.10
2017-10-08T01:07:36.183Z,1.67
2017-10-08T01:10:04.144Z,1.40
2017-10-08T01:12:32.054Z,2.00
2017-10-08T01:15:00.059Z,1.92
2017-10-08T01:17:27.958Z,1.20
2017-10-08T01:19:55.991Z,2.95
2017-10-08T01:22:23.943Z,1.65
2017-10-08T01:24:51.945Z,1.10
2017-10-08T01:27:19.884Z,1.30
2017-10-08T01:29:47.911Z,2.78
2017-10-08T01:32:15.862Z,2.53
2017-10-08T01:34:43.811Z,1.65
2017-10-08T01:37:11.794Z,1.52
2017-10-08T01:39:39.768Z,1.30
2017-10-08T01:42:07.754Z,1.30
2017-10-08T01:44:37.800Z,1.87
2017-10-08T01:47:05.787Z,3.22
2017-10-08T01:49:33.698Z,1.40
2017-10-08T01:52:01.673Z,1.60
2017-10-08T01:54:29.661Z,1.65
2017-10-08T01:56:57.674Z,1.70
2017-10-08T01:59:25.575Z,1.80
2017-10-08T02:01:53.524Z,1.58
2017-10-08T02:04:21.438Z,1.70
2017-10-08T02:06:49.375Z,1.90
2017-10-08T02:09:18.037Z,1.40
2017-10-08T02:11:45.965Z,3.15
2017-10-08T02:14:13.990Z,5.47
2017-10-08T02:16:42.695Z,1.85
2017-10-08T02:19:11.345Z,2.40
2017-10-08T02:21:39.279Z,2.85
2017-10-08T02:24:07.158Z,1.95
2017-10-08T02:26:35.089Z,2.00
2017-10-08T02:29:02.960Z,2.75
2017-10-08T02:31:30.876Z,2.10
2017-10-08T02:33:58.764Z,2.00
2017-10-08T02:36:26.698Z,1.87
2017-10-08T02:38:54.569Z,1.77
2017-10-08T02:41:22.505Z,1.80
2017-10-08T02:43:50.539Z,2.85
2017-10-08T02:46:18.415Z,2.15
2017-10-08T02:48:46.352Z,2.47
2017-10-08T02:51:14.230Z,4.90
2017-10-08T02:53:42.154Z,5.25
2017-10-08T02:56:10.029Z,6.28
2017-10-08T02:58:37.952Z,11.85
2017-10-08T03:01:05.831Z,10.98
2017-10-08T03:03:34.515Z,11.73
2017-10-08T03:06:02.393Z,16.60
2017-10-08T03:08:30.351Z,19.55
2017-10-08T03:10:58.230Z,19.10
2017-10-08T03:13:26.221Z,21.55
2017-10-08T03:15:54.102Z,24.50
2017-10-08T03:18:22.057Z,19.17
2017-10-08T03:20:49.993Z,23.77
2017-10-08T03:23:17.940Z,21.48
2017-10-08T03:25:45.808Z,23.87
2017-10-08T03:28:15.903Z,22.92
2017-10-08T03:30:43.787Z,25.02
2017-10-08T03:33:11.738Z,21.62
2017-10-08T03:35:39.635Z,19.60
2017-10-08T03:38:07.582Z,19.92
2017-10-08T03:40:35.705Z,19.23
2017-10-08T03:43:03.707Z,20.02
2017-10-08T03:45:31.611Z,18.87
2017-10-08T03:47:59.532Z,18.15
2017-10-08T03:50:28.194Z,19.52
2017-10-08T03:52:56.159Z,21.75
2017-10-08T03:55:24.091Z,23.83
2017-10-08T03:57:52.045Z,18.67
2017-10-08T04:00:19.982Z,25.77
2017-10-08T04:02:48.636Z,19.48
2017-10-08T04:05:16.596Z,16.40
2017-10-08T04:07:44.481Z,20.05
2017-10-08T04:10:12.408Z,17.83
2017-10-08T04:12:40.312Z,23.98
2017-10-08T04:15:08.264Z,27.33
2017-10-08T04:17:36.146Z,21.00
2017-10-08T04:20:04.140Z,20.42
2017-10-08T04:22:32.086Z,20.40
2017-10-08T04:25:00.026Z,25.00
2017-10-08T04:27:27.920Z,22.58
2017-10-08T04:29:55.868Z,24.48
2017-10-08T04:32:23.767Z,18.52
2017-10-08T04:34:52.005Z,20.35
2017-10-08T04:37:19.884Z,21.67
2017-10-08T04:39:47.815Z,23.00
2017-10-08T04:42:16.505Z,18.90
2017-10-08T04:44:45.212Z,20.10
2017-10-08T04:47:13.126Z,27.05
2017-10-08T04:49:41.084Z,20.95
2017-10-08T04:52:08.980Z,17.55
2017-10-08T04:54:36.919Z,21.90
2017-10-08T04:57:04.820Z,17.60
2017-10-08T04:59:32.768Z,21.25
2017-10-08T05:02:00.650Z,18.40
2017-10-08T05:04:28.524Z,19.40
2017-10-08T05:06:56.460Z,25.23
2017-10-08T05:09:24.330Z,25.75
2017-10-08T05:11:52.268Z,26.12
2017-10-08T05:14:20.165Z,27.37
2017-10-08T05:16:48.096Z,28.20
2017-10-08T05:19:15.980Z,25.55
2017-10-08T05:21:43.908Z,27.85
2017-10-08T05:24:11.784Z,26.25
2017-10-08T05:26:39.735Z,29.20
2017-10-08T05:29:07.679Z,28.80
2017-10-08T05:31:35.614Z,28.38
2017-10-08T05:34:03.540Z,22.37
2017-10-08T05:36:31.488Z,25.35
2017-10-08T05:38:59.374Z,29.95
2017-10-08T05:41:27.323Z,24.98
2017-10-08T05:43:55.214Z,31.95
2017-10-08T05:46:23.155Z,31.27
2017-10-08T05:48:51.040Z,31.95
2017-10-08T05:51:18.985Z,30.98
2017-10-08T05:53:46.870Z,27.58
2017-10-08T05:56:14.819Z,28.15
2017-10-08T05:58:42.734Z,27.42
2017-10-08T06:01:10.693Z,23.40
2017-10-08T06:03:41.988Z,21.92
2017-10-08T06:06:10.653Z,37.72
2017-10-08T06:08:38.597Z,29.55
2017-10-08T06:11:06.479Z,26.55
2017-10-08T06:13:34.613Z,24.98
2017-10-08T06:16:02.535Z,20.48
2017-10-08T06:18:30.487Z,28.08
2017-10-08T06:20:58.375Z,23.17
2017-10-08T06:23:26.324Z,24.23
2017-10-08T06:25:54.228Z,19.98
2017-10-08T06:28:22.168Z,24.55
2017-10-08T06:30:50.059Z,20.50
2017-10-08T06:33:20.111Z,20.90
2017-10-08T06:35:48.001Z,24.17
2017-10-08T06:38:15.915Z,26.27
2017-10-08T06:40:52.064Z,23.27
2017-10-08T06:43:26.611Z,18.62
2017-10-08T06:46:00.006Z,21.87
2017-10-08T06:48:32.513Z,17.98
2017-10-08T06:51:06.940Z,19.60
2017-10-08T06:53:41.505Z,16.70
2017-10-08T06:56:10.710Z,19.95
2017-10-08T06:58:42.296Z,18.02
2017-10-08T07:01:12.573Z,23.10
2017-10-08T07:03:48.787Z,20.67
2017-10-08T07:06:17.884Z,15.05
2017-10-08T07:08:51.727Z,20.40
2017-10-08T07:11:26.649Z,16.73
2017-10-08T07:14:01.919Z,15.75
2017-10-08T07:16:29.930Z,16.05
2017-10-08T07:18:57.892Z,11.00
2017-10-08T07:21:25.792Z,11.23
2017-10-08T07:23:55.024Z,15.48
2017-10-08T07:26:22.927Z,10.00
2017-10-08T07:28:50.862Z,12.80
2017-10-08T07:31:18.752Z,12.93
2017-10-08T07:33:46.701Z,11.55
2017-10-08T07:36:14.607Z,22.05
2017-10-08T07:38:42.559Z,12.02
2017-10-08T07:41:10.460Z,11.88
2017-10-08T07:43:38.412Z,12.45
2017-10-08T07:46:06.301Z,12.80
2017-10-08T07:48:34.229Z,14.15
2017-10-08T07:51:02.221Z,16.37
2017-10-08T07:53:30.289Z,13.80
2017-10-08T07:55:59.012Z,13.93
2017-10-08T07:58:26.953Z,11.70
2017-10-08T08:00:54.894Z,11.45
2017-10-08T08:03:22.870Z,10.55
2017-10-08T08:05:50.808Z,12.90
2017-10-08T08:08:18.708Z,11.75
2017-10-08T08:10:46.656Z,12.82
2017-10-08T08:13:20.363Z,13.55
2017-10-08T08:15:48.296Z,12.20
2017-10-08T08:18:16.216Z,13.05
2017-10-08T08:20:44.136Z,10.52
2017-10-08T08:23:11.999Z,13.00
2017-10-08T08:25:48.893Z,9.80
2017-10-08T08:28:16.961Z,8.73
2017-10-08T08:30:44.876Z,8.80
2017-10-08T08:33:12.752Z,7.75
2017-10-08T08:35:40.674Z,9.43
2017-10-08T08:38:08.558Z,8.35
2017-10-08T08:40:36.485Z,11.75
2017-10-08T08:43:04.359Z,11.70
2017-10-08T08:45:32.281Z,8.98
2017-10-08T08:48:00.555Z,9.20
2017-10-08T08:50:28.484Z,8.43
2017-10-08T08:52:56.344Z,6.20
2017-10-08T08:55:24.209Z,7.45
2017-10-08T08:57:52.171Z,7.30
2017-10-08T09:00:20.036Z,7.20
2017-10-08T09:02:47.967Z,4.75
2017-10-08T09:05:15.847Z,9.68
2017-10-08T09:07:43.765Z,8.98
2017-10-08T09:10:11.684Z,13.02
2017-10-08T09:12:39.601Z,10.27
2017-10-08T09:15:07.462Z,8.27
2017-10-08T09:17:35.390Z,9.60
2017-10-08T09:20:03.250Z,10.67
2017-10-08T09:22:31.160Z,8.10
2017-10-08T09:24:59.171Z,9.70
2017-10-08T09:27:27.140Z,6.93
2017-10-08T09:29:55.062Z,8.53
2017-10-08T09:32:23.803Z,8.30
2017-10-08T09:34:51.724Z,11.30
2017-10-08T09:37:23.488Z,12.50
2017-10-08T09:39:51.370Z,9.27
2017-10-08T09:42:19.293Z,8.80
2017-10-08T09:44:47.163Z,10.20
2017-10-08T09:47:15.081Z,12.47
2017-10-08T09:49:42.955Z,9.60
2017-10-08T09:52:10.888Z,8.03
2017-10-08T09:54:38.821Z,9.68
2017-10-08T09:57:06.765Z,9.07
2017-10-08T09:59:34.669Z,8.00
2017-10-08T10:02:02.631Z,13.17
2017-10-08T10:04:30.531Z,7.07
2017-10-08T10:06:58.470Z,5.27
2017-10-08T10:09:26.447Z,6.30
2017-10-08T10:11:54.347Z,8.73
2017-10-08T10:14:22.283Z,4.83
2017-10-08T10:16:50.773Z,4.03
2017-10-08T10:19:19.222Z,3.80
2017-10-08T10:21:47.523Z,4.93
2017-10-08T10:24:21.096Z,5.43
2017-10-08T10:26:55.322Z,4.70
2017-10-08T10:29:30.504Z,3.57
2017-10-08T10:31:59.536Z,5.37
2017-10-08T10:34:27.990Z,2.77
2017-10-08T10:36:56.578Z,4.00
2017-10-08T10:39:25.179Z,3.80
2017-10-08T10:41:53.811Z,2.60
2017-10-08T10:44:21.798Z,3.40
2017-10-08T10:46:51.176Z,2.20
2017-10-08T10:49:19.167Z,6.57
2017-10-08T10:51:47.039Z,4.47
2017-10-08T10:54:14.965Z,6.20
2017-10-08T10:56:42.841Z,5.37
2017-10-08T10:59:10.808Z,6.00
2017-10-08T11:01:38.743Z,6.30
2017-10-08T11:04:06.752Z,5.57
2017-10-08T11:06:34.650Z,5.90
2017-10-08T11:09:02.576Z,7.87
2017-10-08T11:11:30.434Z,9.27
2017-10-08T11:13:59.419Z,6.77
2017-10-08T11:16:27.340Z,6.13
2017-10-08T11:18:55.240Z,8.07
2017-10-08T11:21:23.157Z,6.07
2017-10-08T11:23:51.028Z,6.77
2017-10-08T11:26:18.955Z,6.97
2017-10-08T11:28:46.852Z,5.70
2017-10-08T11:31:14.783Z,10.63
2017-10-08T11:33:44.134Z,4.37
2017-10-08T11:36:12.048Z,3.80
2017-10-08T11:38:40.700Z,7.00
2017-10-08T11:41:08.624Z,4.60
2017-10-08T11:43:36.640Z,4.47
2017-10-08T11:46:04.687Z,6.93
2017-10-08T11:48:32.626Z,6.60
2017-10-08T11:51:00.567Z,3.00
2017-10-08T11:53:28.443Z,5.70
2017-10-08T11:55:56.425Z,7.17
2017-10-08T11:58:25.069Z,3.40
2017-10-08T12:00:53.016Z,7.70
2017-10-08T12:03:20.927Z,5.70
2017-10-08T12:05:48.890Z,3.50
2017-10-08T12:08:16.836Z,6.23
2017-10-08T12:10:44.800Z,3.07
2017-10-08T12:13:12.703Z,6.40
2017-10-08T12:15:40.632Z,7.90
2017-10-08T12:18:08.499Z,5.00
2017-10-08T12:20:36.432Z,3.90
2017-10-08T12:23:04.331Z,2.80
2017-10-08T12:25:32.270Z,8.50
2017-10-08T12:28:00.145Z,3.70
2017-10-08T12:30:29.020Z,5.20
2017-10-08T12:32:56.959Z,3.27
2017-10-08T12:35:24.838Z,6.00
2017-10-08T12:37:52.772Z,4.90
2017-10-08T12:40:28.543Z,4.93
2017-10-08T12:43:00.294Z,4.90
2017-10-08T12:45:28.424Z,2.97
2017-10-08T12:47:56.368Z,10.13
2017-10-08T12:50:24.260Z,4.30
2017-10-08T12:52:53.173Z,6.10
2017-10-08T12:55:21.148Z,6.80
2017-10-08T12:57:49.182Z,5.07
2017-10-08T13:00:17.070Z,11.40
2017-10-08T13:02:45.772Z,3.97
2017-10-08T13:05:13.819Z,4.70
2017-10-08T13:07:42.521Z,19.10
2017-10-08T13:10:11.159Z,3.00
2017-10-08T13:12:39.083Z,2.77
2017-10-08T13:15:06.948Z,5.07
2017-10-08T13:17:34.961Z,6.30
2017-10-08T13:20:02.827Z,4.40
2017-10-08T13:22:30.752Z,6.10
2017-10-08T13:24:58.702Z,8.20
2017-10-08T13:27:26.616Z,4.53
2017-10-08T13:29:54.466Z,4.80
2017-10-08T13:32:22.432Z,5.93
2017-10-08T13:34:50.310Z,5.40
2017-10-08T13:37:18.239Z,4.97
2017-10-08T13:39:46.150Z,3.70
2017-10-08T13:42:15.387Z,4.10
2017-10-08T13:44:44.536Z,4.47
2017-10-08T13:47:17.035Z,8.93
2017-10-08T13:49:44.992Z,5.20
2017-10-08T13:52:12.881Z,3.73
2017-10-08T13:54:40.821Z,2.80
2017-10-08T13:57:08.700Z,3.20
2017-10-08T13:59:36.645Z,2.77
2017-10-08T14:02:05.304Z,4.00
2017-10-08T14:04:33.281Z,3.03
2017-10-08T14:07:03.192Z,3.73
2017-10-08T14:09:31.126Z,4.73
2017-10-08T14:11:59.001Z,3.80
2017-10-08T14:14:27.010Z,4.33
2017-10-08T14:16:54.980Z,3.93
2017-10-08T14:19:22.914Z,3.10
2017-10-08T14:21:50.791Z,5.77
2017-10-08T14:24:18.719Z,2.30
2017-10-08T14:26:46.582Z,2.93
2017-10-08T14:29:14.522Z,5.33
2017-10-08T14:31:42.389Z,2.90
2017-10-08T14:34:10.338Z,4.43
2017-10-08T14:36:38.243Z,10.00
2017-10-08T14:39:06.251Z,4.82
2017-10-08T14:41:34.134Z,6.60
2017-10-08T14:44:02.055Z,5.47
2017-10-08T14:46:29.935Z,6.65
2017-10-08T14:48:57.838Z,3.50
2017-10-08T14:51:25.765Z,4.40
2017-10-08T14:53:53.654Z,5.68
2017-10-08T14:56:21.681Z,9.35
2017-10-08T14:58:49.565Z,9.90
2017-10-08T15:01:18.320Z,4.05
2017-10-08T15:03:47.476Z,7.62
2017-10-08T15:06:15.436Z,5.18
2017-10-08T15:08:43.374Z,4.60
2017-10-08T15:11:11.366Z,4.32
2017-10-08T15:13:40.066Z,4.35
2017-10-08T15:16:08.053Z,3.35
2017-10-08T15:18:35.991Z,3.47
2017-10-08T15:21:03.999Z,4.22
2017-10-08T15:23:32.056Z,3.95
2017-10-08T15:26:00.045Z,4.40
2017-10-08T15:28:27.968Z,5.47
2017-10-08T15:30:55.933Z,4.35
2017-10-08T15:33:24.703Z,6.72
2017-10-08T15:35:52.639Z,7.50
2017-10-08T15:38:20.536Z,6.70
2017-10-08T15:40:51.684Z,5.40
2017-10-08T15:43:24.286Z,4.50
2017-10-08T15:45:52.980Z,5.10
2017-10-08T15:48:21.644Z,5.10
2017-10-08T15:50:49.558Z,7.15
2017-10-08T15:53:18.398Z,4.12
2017-10-08T15:55:46.347Z,4.03
2017-10-08T15:58:14.233Z,8.63
2017-10-08T16:00:42.138Z,4.37
2017-10-08T16:03:10.082Z,2.55
2017-10-08T16:05:37.960Z,6.07
2017-10-08T16:08:05.895Z,4.70
2017-10-08T16:10:33.783Z,1.83
2017-10-08T16:13:01.811Z,3.95
2017-10-08T16:15:29.699Z,7.28
2017-10-08T16:17:57.689Z,2.75
2017-10-08T16:20:28.055Z,3.70
2017-10-08T16:22:59.596Z,8.20
2017-10-08T16:25:29.620Z,10.60
2017-10-08T16:27:57.563Z,2.40
2017-10-08T16:30:25.449Z,3.30
2017-10-08T16:32:54.152Z,2.92
2017-10-08T16:35:22.044Z,3.58
2017-10-08T16:37:50.839Z,2.42
2017-10-08T16:40:18.757Z,4.45
2017-10-08T16:42:46.697Z,4.45
2017-10-08T16:45:14.581Z,4.57
2017-10-08T16:47:42.528Z,2.95
2017-10-08T16:50:10.420Z,5.43
2017-10-08T16:52:38.357Z,3.55
2017-10-08T16:55:06.283Z,3.65
2017-10-08T16:57:34.968Z,7.62
2017-10-08T17:00:03.612Z,3.22
2017-10-08T17:02:31.560Z,4.20
2017-10-08T17:04:59.454Z,2.65
2017-10-08T17:07:27.357Z,3.92
2017-10-08T17:09:56.079Z,4.60
2017-10-08T17:12:23.954Z,3.20
2017-10-08T17:14:55.994Z,4.80
2017-10-08T17:17:23.869Z,3.95
2017-10-08T17:19:51.795Z,4.68
2017-10-08T17:22:19.682Z,5.65
2017-10-08T17:24:47.647Z,3.75
2017-10-08T17:27:15.532Z,7.65
2017-10-08T17:29:44.218Z,6.10
2017-10-08T17:32:13.077Z,9.32
2017-10-08T17:34:41.072Z,6.62
2017-10-08T17:37:08.982Z,12.82
2017-10-08T17:39:36.918Z,6.30
2017-10-08T17:42:05.575Z,7.97
2017-10-08T17:44:33.692Z,7.25
2017-10-08T17:47:01.581Z,11.20
2017-10-08T17:49:29.510Z,7.10
2017-10-08T17:51:58.187Z,7.85
2017-10-08T17:54:26.123Z,9.57
2017-10-08T17:56:53.990Z,6.87
2017-10-08T17:59:25.737Z,9.23
2017-10-08T18:01:53.825Z,8.73
2017-10-08T18:04:23.917Z,7.47
2017-10-08T18:06:51.884Z,7.87
2017-10-08T18:09:19.806Z,5.57
2017-10-08T18:11:47.862Z,10.82
2017-10-08T18:14:16.204Z,6.85
2017-10-08T18:16:44.194Z,7.32
2017-10-08T18:19:12.116Z,4.95
2017-10-08T18:21:40.092Z,14.13
2017-10-08T18:24:08.799Z,6.45
2017-10-08T18:26:36.783Z,6.30
2017-10-08T18:29:04.644Z,9.43
2017-10-08T18:31:32.571Z,6.62
2017-10-08T18:34:02.504Z,9.75
2017-10-08T18:36:31.276Z,9.52
2017-10-08T18:38:59.146Z,8.32
2017-10-08T18:41:27.146Z,9.30
2017-10-08T18:43:55.064Z,11.00
2017-10-08T18:46:22.993Z,12.40
2017-10-08T18:48:50.875Z,13.57
2017-10-08T18:51:18.809Z,12.30
2017-10-08T18:53:51.810Z,15.40
2017-10-08T18:56:20.032Z,15.77
2017-10-08T18:58:47.912Z,11.90
2017-10-08T19:01:15.851Z,12.25
2017-10-08T19:03:43.841Z,11.55
2017-10-08T19:06:11.773Z,20.62
2017-10-08T19:08:39.660Z,11.68
2017-10-08T19:11:07.838Z,16.10
2017-10-08T19:13:35.968Z,16.55
2017-10-08T19:16:04.614Z,18.27
2017-10-08T19:18:32.556Z,13.27
2017-10-08T19:21:00.534Z,12.18
2017-10-08T19:23:28.474Z,18.67
2017-10-08T19:25:56.370Z,11.90
2017-10-08T19:28:24.313Z,9.40
2017-10-08T19:30:52.229Z,16.77
2017-10-08T19:33:20.200Z,19.00
2017-10-08T19:35:48.083Z,10.73
2017-10-08T19:38:16.017Z,9.95
2017-10-08T19:40:43.899Z,12.00
2017-10-08T19:43:11.988Z,13.45
2017-10-08T19:45:39.884Z,16.15
2017-10-08T19:48:07.816Z,15.15
2017-10-08T19:50:35.706Z,18.00
2017-10-08T19:53:03.635Z,23.65
2017-10-08T19:55:31.507Z,17.58
2017-10-08T19:57:59.445Z,14.43
2017-10-08T20:00:27.384Z,14.38
2017-10-08T20:02:55.321Z,14.85
2017-10-08T20:05:23.210Z,13.32
2017-10-08T20:07:51.138Z,15.15
2017-10-08T20:10:19.012Z,12.52
2017-10-08T20:12:46.964Z,13.23
2017-10-08T20:15:14.838Z,13.95
2017-10-08T20:17:42.782Z,13.95
2017-10-08T20:20:11.428Z,15.65
2017-10-08T20:22:39.382Z,15.85
2017-10-08T20:25:07.259Z,12.07
2017-10-08T20:27:35.134Z,11.75
2017-10-08T20:30:03.077Z,16.35
2017-10-08T20:32:30.989Z,15.27
2017-10-08T20:34:59.000Z,12.35
2017-10-08T20:37:26.884Z,12.88
2017-10-08T20:39:54.804Z,14.87
2017-10-08T20:42:22.680Z,12.10
2017-10-08T20:44:51.544Z,19.50
2017-10-08T20:47:19.407Z,13.02
2017-10-08T20:49:47.355Z,12.88
2017-10-08T20:52:16.009Z,13.82
2017-10-08T20:54:44.712Z,15.25
2017-10-08T20:57:12.604Z,13.68
2017-10-08T20:59:40.548Z,13.23
2017-10-08T21:02:08.428Z,22.40
2017-10-08T21:04:36.506Z,15.82
2017-10-08T21:07:04.442Z,15.57
2017-10-08T21:09:33.205Z,15.43
2017-10-08T21:12:01.155Z,22.15
2017-10-08T21:14:29.155Z,18.10
2017-10-08T21:16:57.055Z,17.95
2017-10-08T21:19:25.082Z,17.45
2017-10-08T21:21:52.989Z,16.55
2017-10-08T21:24:20.973Z,16.23
2017-10-08T21:26:52.238Z,27.90
2017-10-08T21:29:20.129Z,15.75
2017-10-08T21:31:48.057Z,19.17
2017-10-08T21:34:16.139Z,17.27
2017-10-08T21:36:44.128Z,13.43
2017-10-08T21:39:18.479Z,14.32
2017-10-08T21:41:47.425Z,15.15
2017-10-08T21:44:17.132Z,16.33
2017-10-08T21:46:45.227Z,20.40
2017-10-08T21:49:13.141Z,17.15
2017-10-08T21:51:43.001Z,20.23
2017-10-08T21:54:10.892Z,16.95
2017-10-08T21:56:38.883Z,15.40
2017-10-08T21:59:06.847Z,16.95
2017-10-08T22:01:38.019Z,17.95
2017-10-08T22:04:09.354Z,16.58
2017-10-08T22:06:41.326Z,15.85
2017-10-08T22:09:12.083Z,15.70
2017-10-08T22:11:41.426Z,18.77
2017-10-08T22:14:12.304Z,18.20
2017-10-08T22:16:42.863Z,17.92
2017-10-08T22:19:13.143Z,17.98
2017-10-08T22:21:45.397Z,15.15
2017-10-08T22:24:17.705Z,16.15
2017-10-08T22:26:49.907Z,19.42
2017-10-08T22:29:19.617Z,13.20
2017-10-08T22:31:50.468Z,18.35
2017-10-08T22:34:18.403Z,15.48
2017-10-08T22:36:46.338Z,15.43
2017-10-08T22:39:14.233Z,15.40
2017-10-08T22:41:42.167Z,13.13
2017-10-08T22:44:10.049Z,18.75
2017-10-08T22:46:38.001Z,23.15
2017-10-08T22:49:05.941Z,16.87
2017-10-08T22:51:33.844Z,17.70
2017-10-08T22:54:01.776Z,15.27
2017-10-08T22:56:29.700Z,17.60
2017-10-08T22:58:57.679Z,15.20
2017-10-08T23:01:25.561Z,17.90
2017-10-08T23:03:53.809Z,18.62
2017-10-08T23:06:21.716Z,25.98
2017-10-08T23:08:49.650Z,21.67
2017-10-08T23:11:17.517Z,19.90
2017-10-08T23:13:45.439Z,14.75
2017-10-08T23:16:13.316Z,18.10
2017-10-08T23:18:41.285Z,14.52
2017-10-08T23:21:09.287Z,19.15
2017-10-08T23:23:38.965Z,23.17
2017-10-08T23:26:06.889Z,23.33
2017-10-08T23:28:34.825Z,19.58
2017-10-08T23:31:02.907Z,22.35
2017-10-08T23:33:31.861Z,19.00
2017-10-08T23:35:59.749Z,20.58
2017-10-08T23:38:27.775Z,16.90
2017-10-08T23:40:56.143Z,16.90
2017-10-08T23:43:24.064Z,22.23
2017-10-08T23:45:51.927Z,19.30
2017-10-08T23:48:19.855Z,18.85
2017-10-08T23:50:48.574Z,19.65
2017-10-08T23:53:16.500Z,22.85
2017-10-08T23:55:44.375Z,19.20
2017-10-08T23:58:13.015Z,15.43
